Time;durP1;ratioP1;P1;durP2;ratioP2;P2;SDS_P1;SDS_P2;PMS_P1;PMS_P2;Temp;Humidity;BMP_temperature;BMP_pressure;BME280_temperature;BME280_humidity;BME280_pressure;Samples;Min_cycle;Max_cycle;Signal;HPM_P1;HPM_P2
2022/12/19 00:01:25;;;;;;;31.20;20.07;;;1.50;99.90;;;;;;5094267;28;20185;-70
2022/12/19 00:03:57;;;;;;;36.70;21.90;;;1.50;99.90;;;;;;5076035;28;20221;-70
2022/12/19 00:06:23;;;;;;;34.60;22.30;;;1.40;99.90;;;;;;5094033;28;20177;-70
2022/12/19 00:08:51;;;;;;;32.43;21.17;;;1.40;99.90;;;;;;5094046;28;20256;-71
2022/12/19 00:11:18;;;;;;;37.63;21.50;;;1.40;99.90;;;;;;5093998;28;20181;-70
2022/12/19 00:13:44;;;;;;;32.13;21.40;;;1.40;99.90;;;;;;5075926;28;20572;-70
2022/12/19 00:16:22;;;;;;;35.97;21.90;;;1.40;99.90;;;;;;5075721;28;20566;-70
2022/12/19 00:18:49;;;;;;;36.03;22.13;;;1.40;99.90;;;;;;5094351;28;20153;-72
2022/12/19 00:21:17;;;;;;;32.43;22.27;;;1.40;99.90;;;;;;5093814;28;20549;-70
2022/12/19 00:23:43;;;;;;;35.83;23.43;;;1.40;99.90;;;;;;5093661;28;20208;-70
2022/12/19 00:26:27;;;;;;;37.00;23.50;;;1.40;99.90;;;;;;5093855;28;20181;-69
2022/12/19 00:28:55;;;;;;;34.37;22.07;;;1.40;99.90;;;;;;5093834;28;20241;-70
2022/12/19 00:31:22;;;;;;;33.83;22.03;;;1.40;99.90;;;;;;5094094;28;20183;-70
2022/12/19 00:33:48;;;;;;;33.90;21.83;;;1.50;99.90;;;;;;5092992;28;20197;-71
2022/12/19 00:36:17;;;;;;;37.53;21.27;;;1.40;99.90;;;;;;5093619;28;20276;-70
2022/12/19 00:38:43;;;;;;;32.27;21.20;;;1.50;99.90;;;;;;5093729;28;20206;-70
2022/12/19 00:41:18;;;;;;;37.87;20.57;;;1.40;99.90;;;;;;5093477;28;20177;-70
2022/12/19 00:43:44;;;;;;;36.10;20.50;;;1.40;99.90;;;;;;5094108;28;20650;-70
2022/12/19 00:46:12;;;;;;;36.57;22.73;;;1.40;99.90;;;;;;5093678;28;20271;-70
2022/12/19 00:48:38;;;;;;;35.13;21.80;;;1.40;99.90;;;;;;5075645;28;20177;-70
2022/12/19 00:51:15;;;;;;;35.20;22.30;;;1.50;99.90;;;;;;5075343;28;20542;-70
2022/12/19 00:53:42;;;;;;;34.53;21.87;;;1.60;99.90;;;;;;5075416;28;20206;-71
2022/12/19 00:56:12;;;;;;;34.73;21.77;;;1.70;99.90;;;;;;5093529;28;20558;-70
2022/12/19 00:58:38;;;;;;;32.50;23.03;;;1.70;99.90;;;;;;5093611;28;20169;-70
2022/12/19 01:01:09;;;;;;;41.60;21.97;;;1.80;99.90;;;;;;5075457;28;20172;-70
2022/12/19 01:03:35;;;;;;;33.07;21.03;;;1.80;99.90;;;;;;5075153;28;20284;-70
2022/12/19 01:06:01;;;;;;;35.07;22.07;;;1.70;99.90;;;;;;5075241;28;20177;-70
2022/12/19 01:08:27;;;;;;;37.63;21.70;;;1.60;99.90;;;;;;5093464;28;20234;-70
2022/12/19 01:10:52;;;;;;;31.50;19.73;;;1.50;99.90;;;;;;5093419;28;20177;-72
2022/12/19 01:13:20;;;;;;;42.73;23.40;;;1.50;99.90;;;;;;5093379;28;20591;-70
2022/12/19 01:15:46;;;;;;;32.53;20.77;;;1.50;99.90;;;;;;5093208;28;20193;-70
2022/12/19 01:18:12;;;;;;;36.50;21.33;;;1.50;99.90;;;;;;5093654;28;20218;-70
2022/12/19 01:20:40;;;;;;;38.43;22.87;;;1.50;99.90;;;;;;5075097;28;20185;-71
2022/12/19 01:23:08;;;;;;;34.17;21.47;;;1.40;99.90;;;;;;5093040;28;20208;-70
2022/12/19 01:25:36;;;;;;;35.67;21.53;;;1.40;99.90;;;;;;5075116;28;20181;-70
2022/12/19 01:28:02;;;;;;;33.57;21.73;;;1.50;99.90;;;;;;5093433;28;20577;-71
2022/12/19 01:30:30;;;;;;;36.33;23.47;;;1.50;99.90;;;;;;5075155;28;20200;-70
2022/12/19 01:32:57;;;;;;;41.10;23.20;;;1.50;99.90;;;;;;5075099;28;20204;-70
2022/12/19 01:35:23;;;;;;;40.33;24.13;;;1.50;99.90;;;;;;5074978;28;20208;-70
2022/12/19 01:37:50;;;;;;;42.47;22.33;;;1.50;99.90;;;;;;5093179;28;20166;-71
2022/12/19 01:40:16;;;;;;;40.93;22.90;;;1.50;99.90;;;;;;5093103;28;20192;-70
2022/12/19 01:42:42;;;;;;;39.13;23.07;;;1.40;99.90;;;;;;5093242;28;20169;-71
2022/12/19 01:45:08;;;;;;;38.07;23.13;;;1.40;99.90;;;;;;5095271;28;20176;-70
2022/12/19 01:47:47;;;;;;;45.17;25.43;;;1.40;99.90;;;;;;5096763;28;20252;-70
2022/12/19 01:50:18;;;;;;;39.17;23.60;;;1.50;99.90;;;;;;5078630;28;20617;-70
2022/12/19 01:52:45;;;;;;;42.53;24.37;;;1.50;99.90;;;;;;5096611;28;20165;-70
2022/12/19 01:55:11;;;;;;;42.63;26.03;;;1.50;99.90;;;;;;5096670;28;20283;-70
2022/12/19 01:57:39;;;;;;;45.77;25.37;;;1.60;99.90;;;;;;5078707;28;20169;-70
2022/12/19 02:00:08;;;;;;;42.47;23.37;;;1.60;99.90;;;;;;5096696;28;20251;-70
2022/12/19 02:02:52;;;;;;;43.50;24.27;;;1.70;99.90;;;;;;5078659;28;20177;-70
2022/12/19 02:05:18;;;;;;;47.37;25.63;;;1.80;99.90;;;;;;5096708;28;20305;-70
2022/12/19 02:07:49;;;;;;;41.53;25.87;;;1.80;99.90;;;;;;5096335;28;20173;-70
2022/12/19 02:10:14;;;;;;;45.90;25.97;;;1.90;99.90;;;;;;5078289;28;20177;-69
2022/12/19 02:12:42;;;;;;;40.70;26.10;;;2.00;99.90;;;;;;5096342;28;20178;-70
2022/12/19 02:15:09;;;;;;;37.13;24.07;;;2.00;99.90;;;;;;5097153;28;20531;-70
2022/12/19 02:17:40;;;;;;;41.37;23.07;;;2.00;99.90;;;;;;5096461;28;20697;-72
2022/12/19 02:20:12;;;;;;;40.27;23.03;;;2.00;99.90;;;;;;5078105;28;20169;-70
2022/12/19 02:22:56;;;;;;;43.37;23.87;;;2.00;99.90;;;;;;5095834;28;20181;-70
2022/12/19 02:25:43;;;;;;;36.33;22.73;;;2.00;99.90;;;;;;5096501;28;20169;-70
2022/12/19 02:28:52;;;;;;;37.87;22.40;;;2.10;99.90;;;;;;5096100;28;20252;-70
2022/12/19 02:31:35;;;;;;;39.53;22.67;;;2.10;99.90;;;;;;5078096;28;20183;-70
2022/12/19 02:34:11;;;;;;;36.57;23.70;;;2.20;99.90;;;;;;5077757;28;20196;-71
2022/12/19 02:36:47;;;;;;;37.13;22.70;;;2.30;99.90;;;;;;5077847;28;20336;-72
2022/12/19 02:39:47;;;;;;;37.73;22.07;;;2.50;99.90;;;;;;5096389;28;20157;-70
2022/12/19 02:42:17;;;;;;;34.53;21.30;;;2.60;99.90;;;;;;5084747;28;20200;-70
2022/12/19 02:44:50;;;;;;;33.33;20.27;;;2.60;99.90;;;;;;5096061;28;20204;-70
2022/12/19 02:47:17;;;;;;;33.17;21.13;;;2.50;99.90;;;;;;5095735;28;20252;-71
2022/12/19 02:49:43;;;;;;;34.73;21.20;;;2.50;99.90;;;;;;5095643;28;20177;-70
2022/12/19 02:52:18;;;;;;;35.03;21.87;;;2.60;99.90;;;;;;5077338;28;20238;-70
2022/12/19 02:54:46;;;;;;;37.97;21.93;;;2.60;99.90;;;;;;5095237;28;20246;-70
2022/12/19 02:57:25;;;;;;;40.27;22.13;;;2.70;99.90;;;;;;5076612;28;20177;-70
2022/12/19 03:00:04;;;;;;;34.37;21.17;;;2.60;99.90;;;;;;5095652;28;20153;-70
2022/12/19 03:02:54;;;;;;;33.10;21.70;;;2.70;99.90;;;;;;5095931;28;20160;-70
2022/12/19 03:05:34;;;;;;;36.33;20.83;;;2.70;99.90;;;;;;5095440;28;20158;-70
2022/12/19 03:08:29;;;;;;;37.03;23.13;;;2.70;99.90;;;;;;5095165;28;20180;-70
2022/12/19 03:11:00;;;;;;;35.13;21.17;;;2.60;99.90;;;;;;5091939;28;20228;-70
2022/12/19 03:13:36;;;;;;;38.10;23.20;;;2.70;99.90;;;;;;5095071;28;20201;-70
2022/12/19 03:16:03;;;;;;;35.93;22.30;;;2.80;99.90;;;;;;5095076;28;20203;-70
2022/12/19 03:18:32;;;;;;;33.83;22.37;;;2.90;99.90;;;;;;5095023;28;20659;-70
2022/12/19 03:21:19;;;;;;;31.03;20.87;;;3.10;99.90;;;;;;5094891;28;20165;-70
2022/12/19 03:23:47;;;;;;;33.73;20.73;;;3.10;99.90;;;;;;5094672;28;20270;-70
2022/12/19 03:26:19;;;;;;;32.93;21.37;;;3.20;99.90;;;;;;5095029;28;20226;-70
2022/12/19 03:28:50;;;;;;;33.70;21.23;;;3.10;99.90;;;;;;5095358;28;20165;-70
2022/12/19 03:31:20;;;;;;;31.60;20.93;;;3.40;99.90;;;;;;5095113;28;20166;-70
2022/12/19 03:33:49;;;;;;;34.37;20.20;;;3.40;99.90;;;;;;5094877;28;20661;-70
2022/12/19 03:36:21;;;;;;;31.33;17.93;;;3.50;99.90;;;;;;5076370;28;20193;-71
2022/12/19 03:38:48;;;;;;;29.40;18.97;;;3.50;99.90;;;;;;5076560;28;20169;-72
2022/12/19 03:43:07;;;;;;;30.77;19.80;;;3.50;99.90;;;;;;5094500;28;20655;-70
2022/12/19 03:44:06;;;;;;;32.47;19.20;;;3.50;99.90;;;;;;5094184;28;20203;-70
2022/12/19 03:46:38;;;;;;;24.87;18.20;;;3.60;99.90;;;;;;5076178;28;20230;-71
2022/12/19 03:49:04;;;;;;;25.33;17.07;;;3.50;99.90;;;;;;5095066;28;20162;-70
2022/12/19 03:51:33;;;;;;;27.00;17.77;;;3.70;99.90;;;;;;5094406;28;20693;-70
2022/12/19 03:54:01;;;;;;;26.90;17.97;;;3.70;99.90;;;;;;5094413;28;20197;-70
2022/12/19 03:56:33;;;;;;;20.43;16.43;;;3.80;99.90;;;;;;5076098;28;20196;-70
2022/12/19 03:59:08;;;;;;;27.60;18.60;;;3.80;99.90;;;;;;5076047;28;20653;-70
2022/12/19 04:01:35;;;;;;;28.70;18.37;;;3.90;99.90;;;;;;5094655;28;20233;-70
2022/12/19 04:04:03;;;;;;;26.97;18.47;;;4.00;99.90;;;;;;5094272;28;20188;-70
2022/12/19 04:06:31;;;;;;;27.83;17.37;;;4.10;99.90;;;;;;5094073;28;20517;-71
2022/12/19 04:08:59;;;;;;;25.93;18.27;;;4.10;99.90;;;;;;5075135;28;20177;-70
2022/12/19 04:11:28;;;;;;;28.37;18.70;;;4.20;99.90;;;;;;5094046;28;20195;-70
2022/12/19 04:14:03;;;;;;;27.27;18.80;;;4.20;99.90;;;;;;5075822;28;20200;-71
2022/12/19 04:16:51;;;;;;;28.30;18.53;;;4.20;99.90;;;;;;5094297;28;20229;-70
2022/12/19 04:19:26;;;;;;;26.77;18.70;;;4.30;99.90;;;;;;5094305;28;20173;-69
2022/12/19 04:22:00;;;;;;;23.20;17.70;;;4.40;99.90;;;;;;5075651;28;20231;-70
2022/12/19 04:24:32;;;;;;;24.70;17.53;;;4.40;99.90;;;;;;5094362;28;20184;-70
2022/12/19 04:27:00;;;;;;;26.13;18.90;;;4.50;99.90;;;;;;5075753;28;20169;-70
2022/12/19 04:29:29;;;;;;;30.67;19.57;;;4.40;99.90;;;;;;5075768;28;20264;-70
2022/12/19 04:31:55;;;;;;;30.87;19.67;;;4.40;99.90;;;;;;5075781;28;20177;-70
2022/12/19 04:34:21;;;;;;;27.50;18.93;;;4.30;99.90;;;;;;5093573;28;20193;-70
2022/12/19 04:36:49;;;;;;;33.80;19.40;;;4.30;99.90;;;;;;5075893;28;20178;-70
2022/12/19 04:39:14;;;;;;;30.80;19.27;;;4.30;99.90;;;;;;5093861;28;20161;-71
2022/12/19 04:41:40;;;;;;;29.30;19.57;;;4.30;99.90;;;;;;5075871;28;20556;-72
2022/12/19 04:44:06;;;;;;;27.23;19.30;;;4.20;99.90;;;;;;5093419;28;20189;-71
2022/12/19 04:46:32;;;;;;;33.40;21.30;;;4.20;99.90;;;;;;5093785;28;20165;-71
2022/12/19 04:48:58;;;;;;;32.80;20.87;;;4.20;99.90;;;;;;5093706;28;20168;-71
2022/12/19 04:51:24;;;;;;;36.43;21.83;;;4.10;99.90;;;;;;5093749;28;20548;-70
2022/12/19 04:53:49;;;;;;;30.63;19.30;;;4.30;99.90;;;;;;5075412;28;20204;-71
2022/12/19 04:56:15;;;;;;;27.80;18.77;;;4.30;99.90;;;;;;5093481;28;20190;-70
2022/12/19 04:58:41;;;;;;;32.23;19.87;;;4.50;99.90;;;;;;5075487;28;20246;-70
2022/12/19 05:01:08;;;;;;;27.23;19.47;;;4.60;99.90;;;;;;5093574;28;20193;-70
2022/12/19 05:03:35;;;;;;;34.63;20.40;;;4.60;99.90;;;;;;5093289;28;20258;-70
2022/12/19 05:06:12;;;;;;;32.73;19.20;;;4.60;99.90;;;;;;5075408;28;20289;-71
2022/12/19 05:08:40;;;;;;;33.97;19.20;;;4.60;99.90;;;;;;5093395;28;20602;-70
2022/12/19 05:11:07;;;;;;;30.77;19.87;;;4.60;99.90;;;;;;5093706;28;20185;-70
2022/12/19 05:13:33;;;;;;;31.67;19.80;;;4.70;99.90;;;;;;5075252;28;20295;-70
2022/12/19 05:16:01;;;;;;;33.70;19.53;;;4.70;99.90;;;;;;5093268;28;20272;-71
2022/12/19 05:18:28;;;;;;;31.93;19.67;;;4.70;99.90;;;;;;5093602;28;20165;-73
2022/12/19 05:20:53;;;;;;;30.67;20.47;;;4.70;99.90;;;;;;5096638;28;20227;-71
2022/12/19 05:23:20;;;;;;;35.57;21.47;;;4.60;99.90;;;;;;5097088;28;20208;-71
2022/12/19 05:25:45;;;;;;;32.90;21.37;;;4.60;99.90;;;;;;5079105;28;20206;-70
2022/12/19 05:28:12;;;;;;;35.23;22.80;;;4.60;99.90;;;;;;5078968;28;20181;-70
2022/12/19 05:30:37;;;;;;;37.53;20.77;;;4.50;99.90;;;;;;5079366;28;20173;-69
2022/12/19 05:33:03;;;;;;;36.90;22.23;;;4.50;99.90;;;;;;5079943;28;20568;-70
2022/12/19 05:35:29;;;;;;;30.23;20.07;;;4.50;99.90;;;;;;5097481;28;20254;-70
2022/12/19 05:37:55;;;;;;;33.43;21.47;;;4.50;99.90;;;;;;5097335;28;20180;-70
2022/12/19 05:40:21;;;;;;;29.83;20.53;;;4.50;99.90;;;;;;5097362;28;20176;-69
2022/12/19 05:42:46;;;;;;;30.80;19.90;;;4.70;99.90;;;;;;5097123;28;20158;-70
2022/12/19 05:45:12;;;;;;;25.53;17.90;;;4.70;99.90;;;;;;5097024;28;20169;-70
2022/12/19 05:47:38;;;;;;;31.00;19.30;;;4.70;99.90;;;;;;5096845;28;20200;-70
2022/12/19 05:50:04;;;;;;;33.43;19.70;;;4.70;99.90;;;;;;5096790;28;20183;-70
2022/12/19 05:52:30;;;;;;;26.70;19.63;;;4.70;99.90;;;;;;5078244;28;20184;-70
2022/12/19 05:54:56;;;;;;;28.77;19.17;;;4.70;99.90;;;;;;5096297;28;20279;-70
2022/12/19 05:57:23;;;;;;;28.90;18.33;;;4.70;99.90;;;;;;5096440;28;20248;-69
2022/12/19 05:59:49;;;;;;;26.23;18.13;;;4.70;99.90;;;;;;5078310;28;20637;-69
2022/12/19 06:02:14;;;;;;;27.90;18.20;;;4.70;99.90;;;;;;5096592;28;20200;-69
2022/12/19 06:04:40;;;;;;;26.60;18.00;;;4.70;99.90;;;;;;5096710;28;20271;-69
2022/12/19 06:07:06;;;;;;;24.27;17.50;;;4.70;99.90;;;;;;5096426;28;20162;-69
2022/12/19 06:09:31;;;;;;;25.03;18.13;;;4.80;99.90;;;;;;5096384;28;20207;-69
2022/12/19 06:11:57;;;;;;;25.20;16.17;;;4.80;99.90;;;;;;5096174;28;20173;-70
2022/12/19 06:14:23;;;;;;;21.93;16.53;;;4.80;99.90;;;;;;5077982;28;20283;-70
2022/12/19 06:16:49;;;;;;;25.73;17.23;;;4.80;99.90;;;;;;5096142;28;20540;-69
2022/12/19 06:19:14;;;;;;;22.47;16.03;;;4.70;99.90;;;;;;5096202;28;20173;-70
2022/12/19 06:21:40;;;;;;;22.00;16.70;;;4.70;99.90;;;;;;5096353;28;20165;-70
2022/12/19 06:24:06;;;;;;;19.87;15.53;;;4.80;99.90;;;;;;5096334;28;20594;-69
2022/12/19 06:26:32;;;;;;;21.00;14.87;;;4.80;99.90;;;;;;5077857;28;20540;-69
2022/12/19 06:28:57;;;;;;;20.33;15.83;;;4.80;99.90;;;;;;5095892;28;20180;-69
2022/12/19 06:31:24;;;;;;;20.93;15.03;;;4.80;99.90;;;;;;5076728;28;20177;-70
2022/12/19 06:33:51;;;;;;;19.87;14.80;;;4.90;99.90;;;;;;5077648;28;20545;-70
2022/12/19 06:36:23;;;;;;;18.03;14.27;;;4.90;99.90;;;;;;5077543;28;20197;-69
2022/12/19 06:38:50;;;;;;;20.63;15.10;;;5.00;99.90;;;;;;5077689;28;20519;-69
2022/12/19 06:44:03;;;;;;;21.13;15.03;;;5.00;99.90;;;;;;5095908;28;20203;-70
2022/12/19 06:46:29;;;;;;;15.23;13.57;;;5.00;99.90;;;;;;5095688;28;20195;-70
2022/12/19 06:48:55;;;;;;;19.63;15.23;;;5.00;99.90;;;;;;5095698;28;20180;-70
2022/12/19 06:51:21;;;;;;;18.67;15.17;;;5.00;99.90;;;;;;5077327;28;20181;-69
2022/12/19 06:53:47;;;;;;;21.20;15.23;;;5.00;99.90;;;;;;5077238;28;20200;-70
2022/12/19 06:56:14;;;;;;;18.67;14.30;;;5.00;99.90;;;;;;5095405;28;20228;-70
2022/12/19 06:58:40;;;;;;;18.47;14.53;;;5.00;99.90;;;;;;5077415;28;20179;-70
2022/12/19 07:01:06;;;;;;;18.50;14.37;;;5.00;99.90;;;;;;5095323;28;20256;-70
2022/12/19 07:03:37;;;;;;;21.07;15.50;;;5.00;99.90;;;;;;5095258;28;20265;-70
2022/12/19 07:06:03;;;;;;;21.53;16.00;;;5.10;99.90;;;;;;5095555;28;20188;-70
2022/12/19 07:08:29;;;;;;;18.77;14.63;;;5.10;99.90;;;;;;5095022;28;20634;-69
2022/12/19 07:10:56;;;;;;;19.47;15.10;;;5.20;99.90;;;;;;5095339;28;20225;-69
2022/12/19 07:13:21;;;;;;;21.50;14.10;;;5.20;99.90;;;;;;5077069;28;20752;-70
2022/12/19 07:15:48;;;;;;;16.33;14.03;;;5.30;99.90;;;;;;5076841;28;20287;-69
2022/12/19 07:18:14;;;;;;;20.20;13.77;;;5.40;99.90;;;;;;5076691;28;20177;-70
2022/12/19 07:20:41;;;;;;;17.13;13.63;;;5.50;99.90;;;;;;5076877;28;20169;-70
2022/12/19 07:23:10;;;;;;;16.37;13.53;;;5.50;99.90;;;;;;5094702;28;20244;-70
2022/12/19 07:25:37;;;;;;;17.07;14.17;;;5.70;99.90;;;;;;5095424;28;20552;-70
2022/12/19 07:28:03;;;;;;;17.63;13.40;;;5.70;99.90;;;;;;5095044;28;20207;-70
2022/12/19 07:30:29;;;;;;;16.37;13.97;;;5.60;99.90;;;;;;5076836;28;20177;-70
2022/12/19 07:32:55;;;;;;;16.53;13.03;;;5.70;99.90;;;;;;5077314;28;20207;-70
2022/12/19 07:35:21;;;;;;;17.23;13.97;;;5.70;99.90;;;;;;5096208;28;20677;-69
2022/12/19 07:37:48;;;;;;;17.00;12.47;;;5.90;99.90;;;;;;5078275;28;20637;-69
2022/12/19 07:40:14;;;;;;;15.07;12.70;;;5.80;99.90;;;;;;5076740;28;20169;-70
2022/12/19 07:42:40;;;;;;;16.63;13.10;;;5.90;99.90;;;;;;5077600;28;20165;-71
2022/12/19 07:45:06;;;;;;;16.60;12.47;;;5.90;99.90;;;;;;5076864;28;20199;-69
2022/12/19 07:47:32;;;;;;;17.63;14.27;;;5.80;99.90;;;;;;5076880;28;20267;-71
2022/12/19 07:49:58;;;;;;;17.37;13.97;;;5.90;99.90;;;;;;5060375;28;20211;-70
2022/12/19 07:52:24;;;;;;;17.50;14.43;;;5.90;99.90;;;;;;5077201;28;20550;-69
2022/12/19 07:54:50;;;;;;;20.00;14.90;;;5.90;99.90;;;;;;5076310;28;20220;-70
2022/12/19 07:57:16;;;;;;;17.13;13.70;;;6.00;99.90;;;;;;5095758;28;20170;-71
2022/12/19 07:59:42;;;;;;;18.50;14.13;;;5.90;99.90;;;;;;5095019;28;20172;-68
2022/12/19 08:02:08;;;;;;;20.50;14.37;;;5.90;99.90;;;;;;5094380;28;20157;-68
2022/12/19 08:04:34;;;;;;;20.70;14.57;;;5.90;99.90;;;;;;5094103;28;20193;-68
2022/12/19 08:07:01;;;;;;;21.27;15.40;;;5.90;99.90;;;;;;5094488;28;20655;-68
2022/12/19 08:09:27;;;;;;;19.97;15.93;;;6.00;99.90;;;;;;5076559;28;20177;-70
2022/12/19 08:11:55;;;;;;;21.90;16.33;;;5.90;99.90;;;;;;5076594;28;20188;-70
2022/12/19 08:14:21;;;;;;;20.47;16.03;;;6.00;99.90;;;;;;5076082;28;20194;-70
2022/12/19 08:16:47;;;;;;;21.67;16.23;;;5.90;99.90;;;;;;5094893;28;20193;-68
2022/12/19 08:19:12;;;;;;;23.93;17.10;;;6.00;99.90;;;;;;5094198;28;20327;-69
2022/12/19 08:21:38;;;;;;;21.77;15.60;;;6.00;99.90;;;;;;5076021;28;20173;-71
2022/12/19 08:24:04;;;;;;;23.43;15.97;;;6.00;99.90;;;;;;5094457;28;20241;-69
2022/12/19 08:26:30;;;;;;;22.23;16.13;;;6.10;99.90;;;;;;5075729;28;20177;-70
2022/12/19 08:28:57;;;;;;;20.90;15.87;;;6.10;99.90;;;;;;5093809;28;20169;-69
2022/12/19 08:31:25;;;;;;;23.10;16.67;;;6.10;99.90;;;;;;5093854;28;20177;-70
2022/12/19 08:33:52;;;;;;;20.37;14.97;;;6.10;99.90;;;;;;5093805;28;20196;-70
2022/12/19 08:36:19;;;;;;;24.17;17.23;;;6.10;99.90;;;;;;5093625;28;20196;-70
2022/12/19 08:38:46;;;;;;;20.93;14.97;;;6.20;99.90;;;;;;5075330;28;20197;-70
2022/12/19 08:41:12;;;;;;;22.47;15.53;;;6.10;99.90;;;;;;5075599;28;20264;-70
2022/12/19 08:43:38;;;;;;;22.73;16.17;;;6.10;99.90;;;;;;5093956;28;20196;-71
2022/12/19 08:46:04;;;;;;;18.73;14.97;;;6.20;99.90;;;;;;5094238;28;20528;-71
2022/12/19 08:48:31;;;;;;;24.40;15.20;;;6.20;99.90;;;;;;5093863;28;20184;-71
2022/12/19 08:50:59;;;;;;;20.80;15.00;;;6.20;99.90;;;;;;5093914;28;20176;-70
2022/12/19 08:53:28;;;;;;;22.10;15.57;;;6.30;99.90;;;;;;5075379;28;20208;-71
2022/12/19 08:55:55;;;;;;;21.37;14.97;;;6.40;99.90;;;;;;5097141;28;20196;-71
2022/12/19 08:58:25;;;;;;;17.80;14.60;;;6.30;99.90;;;;;;5098071;28;20160;-70
2022/12/19 09:00:54;;;;;;;20.23;15.90;;;6.40;99.90;;;;;;5098059;28;20168;-70
2022/12/19 09:03:21;;;;;;;20.70;15.53;;;6.50;99.90;;;;;;5079491;28;20672;-70
2022/12/19 09:06:08;;;;;;;20.53;15.07;;;6.60;99.90;;;;;;5097605;28;20177;-70
2022/12/19 09:08:35;;;;;;;24.07;16.37;;;6.60;99.90;;;;;;5097298;28;20188;-71
2022/12/19 09:11:04;;;;;;;23.37;14.90;;;6.50;99.90;;;;;;5079243;28;20180;-70
2022/12/19 09:13:31;;;;;;;21.17;14.90;;;6.50;99.90;;;;;;5097394;28;20254;-70
2022/12/19 09:16:09;;;;;;;18.30;14.17;;;6.50;99.90;;;;;;5079215;28;20197;-70
2022/12/19 09:18:35;;;;;;;18.90;14.43;;;6.50;99.90;;;;;;5097353;28;20238;-70
2022/12/19 09:21:01;;;;;;;19.43;14.00;;;6.70;99.90;;;;;;5097462;28;20185;-70
2022/12/19 09:23:28;;;;;;;19.83;13.50;;;6.70;99.90;;;;;;5097293;28;20204;-71
2022/12/19 09:26:02;;;;;;;18.23;13.87;;;6.60;99.90;;;;;;5079283;28;20170;-70
2022/12/19 09:28:29;;;;;;;22.93;14.80;;;6.70;99.90;;;;;;5097829;28;20235;-70
2022/12/19 09:31:00;;;;;;;19.53;14.20;;;6.80;99.90;;;;;;5079036;28;20173;-70
2022/12/19 09:33:27;;;;;;;21.87;14.70;;;6.90;99.90;;;;;;5097202;28;20193;-70
2022/12/19 09:35:54;;;;;;;19.57;13.17;;;6.90;99.90;;;;;;5096990;28;20263;-70
2022/12/19 09:38:21;;;;;;;22.87;14.17;;;7.00;99.90;;;;;;5097128;28;20204;-70
2022/12/19 09:41:27;;;;;;;18.10;12.80;;;7.00;99.90;;;;;;5062102;28;20181;-71
2022/12/19 09:44:21;;;;;;;18.50;13.73;;;7.00;99.90;;;;;;5078679;28;20196;-71
2022/12/19 09:46:57;;;;;;;19.67;13.73;;;7.00;99.90;;;;;;5078841;28;20629;-71
2022/12/19 09:49:27;;;;;;;19.43;13.63;;;7.10;99.90;;;;;;5078607;28;20268;-70
2022/12/19 09:52:04;;;;;;;21.13;13.50;;;7.10;99.90;;;;;;5096580;28;20543;-70
2022/12/19 09:54:41;;;;;;;20.53;14.53;;;7.20;99.90;;;;;;5096680;28;20192;-70
2022/12/19 09:57:19;;;;;;;18.50;12.80;;;7.20;99.90;;;;;;5096955;28;20574;-70
2022/12/19 09:59:55;;;;;;;18.23;13.87;;;7.20;99.90;;;;;;5078432;28;20252;-70
2022/12/19 10:03:20;;;;;;;16.10;12.70;;;7.30;99.90;;;;;;5097119;28;20157;-70
2022/12/19 10:05:50;;;;;;;20.70;13.47;;;7.40;99.90;;;;;;5041259;28;20189;-70
2022/12/19 10:08:18;;;;;;;17.07;12.97;;;7.40;99.90;;;;;;5078184;28;20161;-70
2022/12/19 10:10:58;;;;;;;17.73;13.60;;;7.50;99.90;;;;;;5096421;28;20192;-70
2022/12/19 10:13:35;;;;;;;17.87;12.67;;;7.50;99.90;;;;;;5078171;28;20568;-71
2022/12/19 10:16:20;;;;;;;16.30;12.77;;;7.40;99.90;;;;;;5096134;28;20696;-70
2022/12/19 10:18:59;;;;;;;16.20;12.37;;;7.50;99.90;;;;;;5096182;28;20157;-70
2022/12/19 10:21:53;;;;;;;20.60;13.47;;;7.50;99.90;;;;;;5077863;28;20207;-70
2022/12/19 10:24:46;;;;;;;18.00;12.30;;;7.50;99.90;;;;;;5095720;28;20213;-71
2022/12/19 10:27:38;;;;;;;22.23;13.67;;;7.50;99.90;;;;;;5096185;28;20157;-71
2022/12/19 10:30:17;;;;;;;18.47;13.80;;;7.50;99.90;;;;;;5077866;28;20668;-71
2022/12/19 10:32:56;;;;;;;21.87;14.10;;;7.50;99.90;;;;;;5077847;28;20697;-71
2022/12/19 10:35:29;;;;;;;23.83;15.63;;;7.40;99.90;;;;;;5096181;28;20196;-71
2022/12/19 10:38:18;;;;;;;25.47;14.93;;;7.30;99.90;;;;;;5077753;28;20710;-71
2022/12/19 10:41:06;;;;;;;22.57;15.10;;;7.30;99.90;;;;;;5095650;28;20212;-71
2022/12/19 10:43:41;;;;;;;20.47;15.00;;;7.20;99.90;;;;;;5096367;28;20238;-71
2022/12/19 10:46:16;;;;;;;20.90;15.27;;;7.20;99.90;;;;;;5095698;28;20183;-71
2022/12/19 10:48:42;;;;;;;19.87;14.40;;;7.20;99.90;;;;;;5077889;28;20590;-70
2022/12/19 10:51:17;;;;;;;20.43;13.50;;;7.20;99.90;;;;;;5095646;28;20177;-71
2022/12/19 10:53:55;;;;;;;24.20;15.30;;;7.20;99.90;;;;;;5095402;28;20192;-71
2022/12/19 10:56:26;;;;;;;20.87;14.33;;;7.20;99.90;;;;;;5096073;28;20554;-71
2022/12/19 10:58:57;;;;;;;22.13;14.53;;;7.20;99.90;;;;;;5077507;28;20169;-71
2022/12/19 11:01:27;;;;;;;19.77;14.67;;;7.20;99.90;;;;;;5095466;28;20157;-71
2022/12/19 11:04:25;;;;;;;21.77;14.27;;;7.10;99.90;;;;;;5095328;28;20240;-71
2022/12/19 11:07:03;;;;;;;20.23;14.63;;;7.10;99.90;;;;;;5095670;28;20610;-70
2022/12/19 11:09:34;;;;;;;20.13;14.80;;;7.10;99.90;;;;;;5096013;28;20164;-71
2022/12/19 11:12:06;;;;;;;20.93;14.30;;;7.00;99.90;;;;;;5096457;28;20506;-71
2022/12/19 11:14:33;;;;;;;17.87;13.23;;;7.10;99.90;;;;;;5095896;28;20220;-71
2022/12/19 11:17:00;;;;;;;17.07;13.13;;;7.10;99.90;;;;;;5076816;28;20181;-71
2022/12/19 11:19:31;;;;;;;16.97;12.97;;;7.10;99.90;;;;;;5095943;28;20177;-71
2022/12/19 11:22:04;;;;;;;17.23;12.40;;;7.10;99.90;;;;;;5076481;28;20200;-71
2022/12/19 11:24:53;;;;;;;18.83;13.50;;;7.10;99.90;;;;;;5094937;28;20188;-71
2022/12/19 11:27:37;;;;;;;20.03;13.40;;;7.30;99.90;;;;;;5087337;28;20718;-71
2022/12/19 11:30:08;;;;;;;18.13;12.23;;;7.30;99.90;;;;;;5076809;28;20191;-70
2022/12/19 11:32:35;;;;;;;17.97;12.63;;;7.40;99.90;;;;;;5076732;28;20184;-71
2022/12/19 11:35:05;;;;;;;17.13;13.03;;;7.30;99.90;;;;;;5095224;28;20208;-71
2022/12/19 11:37:54;;;;;;;17.60;12.20;;;7.30;99.90;;;;;;5076444;28;20183;-71
2022/12/19 11:40:37;;;;;;;17.90;12.33;;;7.40;99.90;;;;;;5094793;28;20694;-71
2022/12/19 11:43:14;;;;;;;17.13;12.03;;;7.40;99.90;;;;;;5094674;28;20617;-71
2022/12/19 11:45:47;;;;;;;16.43;11.70;;;7.40;99.90;;;;;;5094919;28;20161;-71
2022/12/19 11:48:25;;;;;;;17.37;12.23;;;7.50;99.90;;;;;;5076588;28;20230;-71
2022/12/19 11:51:10;;;;;;;16.80;11.50;;;7.40;99.90;;;;;;5076414;28;20714;-71
2022/12/19 11:54:03;;;;;;;16.17;12.17;;;7.50;99.90;;;;;;5075999;28;20645;-70
2022/12/19 11:56:29;;;;;;;17.90;11.63;;;7.60;99.90;;;;;;5094283;28;20189;-71
2022/12/19 11:58:59;;;;;;;15.60;11.83;;;7.50;99.90;;;;;;5094606;28;20218;-70
2022/12/19 12:01:43;;;;;;;16.53;11.20;;;7.60;99.90;;;;;;5094295;28;20165;-71
2022/12/19 12:04:33;;;;;;;15.53;11.57;;;7.70;99.90;;;;;;5094280;28;20537;-71
2022/12/19 12:06:59;;;;;;;15.60;10.90;;;7.80;99.90;;;;;;5094029;28;20184;-71
2022/12/19 12:09:34;;;;;;;13.23;10.63;;;7.70;99.90;;;;;;5094282;28;20582;-71
2022/12/19 12:11:59;;;;;;;16.53;11.10;;;7.70;99.90;;;;;;5076001;28;20280;-71
2022/12/19 12:14:36;;;;;;;13.63;10.47;;;7.70;99.90;;;;;;5094060;28;20277;-71
2022/12/19 12:17:30;;;;;;;16.00;10.93;;;7.70;99.90;;;;;;5076063;28;20172;-71
2022/12/19 12:20:18;;;;;;;14.07;10.30;;;7.70;99.90;;;;;;5075860;28;20161;-71
2022/12/19 12:22:47;;;;;;;13.30;10.60;;;7.80;99.90;;;;;;5093875;28;20185;-71
2022/12/19 12:25:29;;;;;;;14.30;10.97;;;7.90;99.90;;;;;;5093890;28;20169;-71
2022/12/19 12:28:15;;;;;;;13.23;10.60;;;8.00;99.90;;;;;;5094170;28;20244;-71
2022/12/19 12:30:49;;;;;;;11.97;9.60;;;8.00;99.90;;;;;;5093186;28;20190;-71
2022/12/19 12:33:48;;;;;;;11.73;9.63;;;8.10;99.90;;;;;;5094222;28;20698;-71
2022/12/19 12:36:39;;;;;;;16.20;9.90;;;8.10;99.90;;;;;;5093749;28;20303;-71
2022/12/19 12:39:51;;;;;;;13.37;9.83;;;8.20;99.90;;;;;;5047024;28;20211;-71
2022/12/19 12:42:16;;;;;;;11.37;9.50;;;8.20;99.90;;;;;;5067673;28;20582;-71
2022/12/19 12:44:45;;;;;;;13.77;10.00;;;8.20;99.90;;;;;;5093586;28;20185;-71
2022/12/19 12:47:19;;;;;;;13.30;10.23;;;8.30;99.90;;;;;;5093578;28;20248;-71
2022/12/19 12:49:55;;;;;;;12.13;9.23;;;8.30;99.90;;;;;;5075565;28;20260;-70
2022/12/19 12:52:33;;;;;;;16.23;10.27;;;8.30;99.90;;;;;;5093542;28;20150;-70
2022/12/19 12:55:01;;;;;;;12.13;9.10;;;8.40;99.90;;;;;;5075378;28;20230;-71
2022/12/19 12:57:27;;;;;;;12.43;9.30;;;8.40;99.90;;;;;;5075212;28;20231;-71
2022/12/19 13:00:15;;;;;;;12.67;10.13;;;8.30;99.90;;;;;;5075399;28;20177;-71
2022/12/19 13:02:43;;;;;;;10.77;9.07;;;8.40;99.90;;;;;;5075090;28;20201;-70